Time;durP1;ratioP1;P1;durP2;ratioP2;P2;SDS_P1;SDS_P2;PMS_P1;PMS_P2;Temp;Humidity;BMP_temperature;BMP_pressure;BME280_temperature;BME280_humidity;BME280_pressure;Samples;Min_cycle;Max_cycle;Signal;HPM_P1;HPM_P2
2022/09/05 00:01:56;;;;;;;7.53;1.17;;;;;;;16.29;100.00;100649.91;5033451;28;20929;-49
2022/09/05 00:04:45;;;;;;;0.93;0.90;;;;;;;16.22;100.00;100650.28;5041859;28;20450;-48
2022/09/05 00:07:24;;;;;;;7.77;1.43;;;;;;;16.33;100.00;100645.31;5049107;28;20473;-48
2022/09/05 00:10:23;;;;;;;3.47;1.83;;;;;;;16.44;100.00;100639.41;5045877;28;20446;-50
2022/09/05 00:12:55;;;;;;;0.83;0.80;;;;;;;16.60;100.00;100637.78;5033492;28;20460;-49
2022/09/05 00:16:26;;;;;;;1.60;1.43;;;;;;;16.68;100.00;100651.72;5046496;28;20582;-50
2022/09/05 00:19:04;;;;;;;1.20;1.10;;;;;;;16.58;100.00;100640.53;5046029;28;20452;-49
2022/09/05 00:21:50;;;;;;;1.13;1.03;;;;;;;16.29;100.00;100641.88;5034874;28;20915;-49
2022/09/05 00:25:09;;;;;;;1.20;1.10;;;;;;;16.33;100.00;100641.75;5043495;28;20455;-49
2022/09/05 00:28:18;;;;;;;1.17;1.07;;;;;;;16.51;100.00;100647.13;5044193;28;20788;-49
2022/09/05 00:31:14;;;;;;;1.60;1.50;;;;;;;16.21;100.00;100646.75;5043702;28;20453;-50
2022/09/05 00:34:27;;;;;;;0.87;0.80;;;;;;;15.95;100.00;100641.69;5041611;28;20817;-50
2022/09/05 00:37:25;;;;;;;1.70;1.60;;;;;;;15.94;100.00;100639.94;5032830;28;20502;-49
2022/09/05 00:40:26;;;;;;;1.10;1.00;;;;;;;15.86;100.00;100634.91;5046444;28;20447;-50
2022/09/05 00:42:57;;;;;;;2.60;1.17;;;;;;;15.68;100.00;100625.91;5028613;28;20447;-48
2022/09/05 00:45:30;;;;;;;1.20;1.10;;;;;;;15.90;100.00;100631.19;5040948;28;20449;-50
2022/09/05 00:48:07;;;;;;;0.90;0.80;;;;;;;15.56;100.00;100642.47;5044221;28;20471;-49
2022/09/05 00:50:55;;;;;;;1.60;1.50;;;;;;;15.66;100.00;100638.50;5041868;28;20452;-49
2022/09/05 00:53:39;;;;;;;1.83;1.23;;;;;;;15.72;100.00;100639.16;5040110;28;20449;-50
2022/09/05 00:56:42;;;;;;;2.10;1.90;;;;;;;15.46;100.00;100634.91;5039512;28;20861;-49
2022/09/05 00:59:27;;;;;;;1.50;1.40;;;;;;;15.82;100.00;100635.13;5040217;28;20948;-49
2022/09/05 01:02:05;;;;;;;1.43;1.27;;;;;;;15.88;100.00;100633.03;5061178;28;20456;-50
2022/09/05 01:05:00;;;;;;;1.63;1.40;;;;;;;15.88;100.00;100641.06;5047210;28;20534;-49
2022/09/05 01:07:44;;;;;;;1.60;1.50;;;;;;;15.46;100.00;100625.06;5045801;28;20569;-49
2022/09/05 01:10:33;;;;;;;2.20;2.10;;;;;;;15.27;100.00;100622.31;5043056;28;20469;-49
2022/09/05 01:13:22;;;;;;;1.87;1.00;;;;;;;15.36;100.00;100623.72;5035207;28;20467;-49
2022/09/05 01:16:14;;;;;;;1.77;1.67;;;;;;;15.31;100.00;100621.22;5045510;28;20530;-50
2022/09/05 01:18:46;;;;;;;1.67;1.57;;;;;;;15.47;100.00;100631.28;5034381;28;20444;-49
2022/09/05 01:21:18;;;;;;;3.53;1.40;;;;;;;15.42;100.00;100626.13;5043040;28;21079;-50
2022/09/05 01:23:49;;;;;;;1.53;1.43;;;;;;;15.31;100.00;100625.72;5048513;28;20450;-49
2022/09/05 01:26:32;;;;;;;1.20;1.03;;;;;;;15.38;100.00;100624.53;5041567;28;20460;-50
2022/09/05 01:29:11;;;;;;;2.53;2.40;;;;;;;15.37;100.00;100620.09;5045555;28;20453;-49
2022/09/05 01:32:08;;;;;;;1.63;1.53;;;;;;;15.35;100.00;100619.28;5045757;28;20443;-49
2022/09/05 01:34:56;;;;;;;1.77;1.67;;;;;;;15.31;100.00;100626.59;5044637;28;20447;-51
2022/09/05 01:37:46;;;;;;;3.57;1.33;;;;;;;15.33;100.00;100635.41;5032195;28;20492;-50
2022/09/05 01:40:35;;;;;;;1.60;1.50;;;;;;;15.21;100.00;100641.28;5048327;28;20450;-50
2022/09/05 01:43:05;;;;;;;2.20;2.10;;;;;;;15.11;100.00;100642.63;5038456;28;20985;-49
2022/09/05 01:45:51;;;;;;;1.53;1.43;;;;;;;15.15;100.00;100641.56;5045786;28;20953;-50
2022/09/05 01:48:32;;;;;;;2.47;1.90;;;;;;;15.25;100.00;100628.66;5041382;28;20858;-49
2022/09/05 01:51:27;;;;;;;1.80;1.70;;;;;;;15.12;100.00;100630.97;5043244;28;20463;-49
2022/09/05 01:54:15;;;;;;;1.40;1.30;;;;;;;15.08;100.00;100626.69;5044324;28;20451;-49
2022/09/05 01:56:52;;;;;;;1.63;1.53;;;;;;;15.18;100.00;100627.16;5035759;28;20926;-49
2022/09/05 01:59:30;;;;;;;1.77;1.50;;;;;;;15.19;100.00;100620.88;5051786;28;20827;-50
2022/09/05 02:02:12;;;;;;;3.20;1.47;;;;;;;15.15;100.00;100620.13;5051246;28;20451;-50
2022/09/05 02:04:45;;;;;;;2.50;1.43;;;;;;;15.13;100.00;100627.38;5042259;28;20454;-49
2022/09/05 02:07:17;;;;;;;1.83;1.73;;;;;;;15.16;100.00;100631.72;5052384;28;20471;-49
2022/09/05 02:10:11;;;;;;;1.73;1.20;;;;;;;15.10;100.00;100638.22;5045553;28;20442;-49
2022/09/05 02:12:45;;;;;;;1.63;1.53;;;;;;;15.08;100.00;100634.75;5042178;28;20537;-50
2022/09/05 02:15:40;;;;;;;1.20;1.03;;;;;;;15.04;100.00;100631.28;5040608;28;20945;-49
2022/09/05 02:18:18;;;;;;;1.90;1.63;;;;;;;15.05;100.00;100632.16;5042672;28;20888;-50
2022/09/05 02:20:52;;;;;;;4.77;1.40;;;;;;;15.00;100.00;100634.16;5048725;28;20460;-49
2022/09/05 02:23:26;;;;;;;3.20;1.60;;;;;;;15.07;100.00;100633.84;5048019;28;20447;-50
2022/09/05 02:26:27;;;;;;;2.00;1.90;;;;;;;14.61;100.00;100633.97;5035373;28;20463;-50
2022/09/05 02:29:10;;;;;;;1.60;1.30;;;;;;;14.57;100.00;100632.34;5049728;28;20458;-49
2022/09/05 02:31:47;;;;;;;1.20;1.10;;;;;;;14.62;100.00;100633.03;5041758;28;20534;-49
2022/09/05 02:34:37;;;;;;;0.97;0.90;;;;;;;14.64;100.00;100631.16;5046504;28;20444;-49
2022/09/05 02:37:13;;;;;;;1.17;0.90;;;;;;;14.63;100.00;100632.09;5051422;28;20540;-49
2022/09/05 02:39:48;;;;;;;2.70;1.80;;;;;;;14.70;100.00;100639.84;5041735;28;20458;-51
2022/09/05 02:42:46;;;;;;;1.00;0.80;;;;;;;14.94;100.00;100621.91;5035208;28;20456;-49
2022/09/05 02:46:11;;;;;;;2.67;1.70;;;;;;;14.60;100.00;100622.41;5026098;28;20874;-49
2022/09/05 02:49:03;;;;;;;1.80;1.70;;;;;;;14.69;100.00;100627.38;5035631;28;20451;-52
2022/09/05 02:51:58;;;;;;;1.60;1.50;;;;;;;14.67;100.00;100628.38;5035122;28;20443;-52
2022/09/05 02:54:49;;;;;;;1.23;1.13;;;;;;;14.70;100.00;100629.13;5048043;28;21092;-52
2022/09/05 02:57:47;;;;;;;1.57;1.47;;;;;;;14.61;100.00;100628.63;5046790;28;20518;-52
2022/09/05 03:00:45;;;;;;;2.07;1.97;;;;;;;14.61;100.00;100620.59;5067413;28;20446;-52
2022/09/05 03:03:41;;;;;;;1.33;1.23;;;;;;;14.62;100.00;100623.19;5034943;28;20875;-52
2022/09/05 03:06:29;;;;;;;1.97;1.50;;;;;;;14.64;100.00;100621.34;5039574;28;20467;-52
2022/09/05 03:09:38;;;;;;;2.00;1.80;;;;;;;14.77;100.00;100625.25;5041075;28;20501;-51
2022/09/05 03:12:32;;;;;;;2.50;2.20;;;;;;;14.85;100.00;100624.09;5036672;28;20857;-52
2022/09/05 03:15:23;;;;;;;1.67;1.57;;;;;;;14.79;100.00;100625.19;5042717;28;20951;-52
2022/09/05 03:18:04;;;;;;;1.60;1.50;;;;;;;14.65;100.00;100624.88;5046868;28;20497;-52
2022/09/05 03:21:22;;;;;;;1.33;1.23;;;;;;;14.47;100.00;100619.34;5040944;28;20816;-51
2022/09/05 03:24:22;;;;;;;3.90;2.20;;;;;;;14.56;100.00;100620.78;5040640;28;20895;-52
2022/09/05 03:27:16;;;;;;;2.13;2.03;;;;;;;14.64;100.00;100623.13;5050044;28;20478;-52
2022/09/05 03:29:54;;;;;;;2.90;2.17;;;;;;;14.79;100.00;100619.84;5029859;28;20940;-52
2022/09/05 03:32:48;;;;;;;2.27;2.10;;;;;;;14.57;100.00;100621.66;5047400;28;20462;-52
2022/09/05 03:35:24;;;;;;;1.33;1.20;;;;;;;14.54;100.00;100619.13;5037544;28;20447;-51
2022/09/05 03:38:05;;;;;;;1.37;1.17;;;;;;;14.61;100.00;100623.28;5042336;28;20491;-52
2022/09/05 03:41:00;;;;;;;2.03;1.93;;;;;;;14.53;100.00;100615.56;5040693;28;20450;-52
2022/09/05 03:43:39;;;;;;;4.20;2.73;;;;;;;14.28;100.00;100620.97;5040621;28;20449;-52
2022/09/05 03:46:28;;;;;;;1.50;1.40;;;;;;;14.41;100.00;100621.34;5042046;28;20833;-51
2022/09/05 03:49:18;;;;;;;1.13;1.03;;;;;;;14.43;100.00;100617.69;5043162;28;20550;-51
2022/09/05 03:52:21;;;;;;;2.50;2.30;;;;;;;14.39;100.00;100621.41;5033993;28;20455;-51
2022/09/05 03:55:39;;;;;;;2.17;1.37;;;;;;;14.46;100.00;100624.75;5041254;28;20967;-51
2022/09/05 03:58:28;;;;;;;1.60;1.50;;;;;;;14.62;100.00;100630.34;5033976;28;20443;-51
2022/09/05 04:01:40;;;;;;;1.93;1.83;;;;;;;14.60;100.00;100629.56;5060605;28;20439;-51
2022/09/05 04:04:35;;;;;;;1.83;1.73;;;;;;;14.40;100.00;100623.16;5046960;28;20454;-51
2022/09/05 04:07:39;;;;;;;2.20;2.10;;;;;;;14.25;100.00;100626.41;5046577;28;20494;-51
2022/09/05 04:10:39;;;;;;;2.33;1.60;;;;;;;14.21;100.00;100633.69;5052768;28;20450;-51
2022/09/05 04:13:25;;;;;;;1.73;1.63;;;;;;;14.11;100.00;100623.38;5043228;28;20531;-50
2022/09/05 04:16:16;;;;;;;2.07;1.97;;;;;;;14.21;100.00;100630.13;5041246;28;20483;-51
2022/09/05 04:19:06;;;;;;;1.47;1.37;;;;;;;14.27;100.00;100629.91;5035288;28;20502;-51
2022/09/05 04:21:47;;;;;;;2.27;1.10;;;;;;;14.13;100.00;100633.13;5041038;28;20845;-51
2022/09/05 04:24:44;;;;;;;3.07;2.53;;;;;;;14.08;100.00;100632.41;5036540;28;20450;-51
2022/09/05 04:27:24;;;;;;;2.80;2.60;;;;;;;14.10;100.00;100643.03;5052901;28;20468;-50
2022/09/05 04:30:12;;;;;;;2.60;1.63;;;;;;;14.10;100.00;100641.22;5050294;28;20542;-51
2022/09/05 04:33:01;;;;;;;5.27;2.07;;;;;;;14.04;100.00;100645.94;5045555;28;20457;-51
2022/09/05 04:35:44;;;;;;;9.60;3.27;;;;;;;14.06;100.00;100647.63;5039429;28;20936;-51
2022/09/05 04:38:32;;;;;;;1.97;1.87;;;;;;;14.03;100.00;100652.22;5039030;28;20839;-51
2022/09/05 04:41:03;;;;;;;2.20;2.10;;;;;;;14.41;100.00;100646.31;5041018;28;20455;-51
2022/09/05 04:43:47;;;;;;;2.30;2.20;;;;;;;14.31;100.00;100647.56;5046075;28;20813;-52
2022/09/05 04:46:29;;;;;;;2.57;2.40;;;;;;;14.31;100.00;100647.56;5045770;28;20811;-51
2022/09/05 04:49:06;;;;;;;3.70;1.43;;;;;;;14.34;100.00;100651.94;5042909;28;20454;-51
2022/09/05 04:51:45;;;;;;;2.57;2.30;;;;;;;14.29;100.00;100656.59;5039408;28;20447;-51
2022/09/05 04:54:49;;;;;;;1.57;1.47;;;;;;;14.30;100.00;100663.69;5039139;28;20444;-51
2022/09/05 04:57:19;;;;;;;2.00;1.90;;;;;;;14.14;100.00;100652.69;5040195;28;20570;-51
2022/09/05 05:00:05;;;;;;;3.13;2.00;;;;;;;14.18;100.00;100659.66;5057736;28;20442;-51
2022/09/05 05:02:57;;;;;;;2.80;2.60;;;;;;;14.17;100.00;100668.63;5040699;28;20454;-52
2022/09/05 05:05:46;;;;;;;2.30;2.07;;;;;;;14.23;100.00;100665.69;5039159;28;20448;-51
2022/09/05 05:08:44;;;;;;;2.30;2.20;;;;;;;14.27;100.00;100658.47;5032609;28;20454;-51
2022/09/05 05:11:18;;;;;;;1.63;1.53;;;;;;;14.23;100.00;100668.38;5039271;28;20530;-52
2022/09/05 05:14:11;;;;;;;3.67;2.27;;;;;;;14.32;100.00;100669.84;5038887;28;20462;-51
2022/09/05 05:17:11;;;;;;;1.50;1.40;;;;;;;14.40;100.00;100675.78;5044647;28;20994;-51
2022/09/05 05:20:09;;;;;;;5.80;2.13;;;;;;;15.04;100.00;100670.59;5044069;28;20439;-52
2022/09/05 05:23:06;;;;;;;1.70;1.60;;;;;;;15.52;100.00;100666.81;5032233;28;20467;-52
2022/09/05 05:25:52;;;;;;;2.40;1.90;;;;;;;15.79;100.00;100670.13;5045836;28;20858;-52
2022/09/05 05:28:27;;;;;;;1.60;1.40;;;;;;;16.05;100.00;100666.28;5045340;28;20456;-52
2022/09/05 05:30:56;;;;;;;2.50;2.30;;;;;;;16.22;98.32;100675.31;5041073;28;20780;-52
2022/09/05 05:33:32;;;;;;;2.50;2.30;;;;;;;16.48;97.75;100674.09;5038646;28;20967;-52
2022/09/05 05:36:05;;;;;;;2.10;2.00;;;;;;;16.72;96.29;100680.16;5041304;28;20536;-52
2022/09/05 05:38:56;;;;;;;2.53;2.00;;;;;;;16.66;96.41;100684.91;5045197;28;21123;-52
2022/09/05 05:41:42;;;;;;;1.60;1.50;;;;;;;16.53;97.21;100680.13;5045278;28;20936;-52
2022/09/05 05:44:16;;;;;;;1.63;1.53;;;;;;;16.74;96.72;100686.34;5043758;28;20450;-52
2022/09/05 05:47:17;;;;;;;2.10;1.90;;;;;;;16.63;97.70;100693.13;5038448;28;20486;-52
2022/09/05 05:50:01;;;;;;;2.27;2.17;;;;;;;16.84;97.31;100695.66;5046533;28;20447;-52
2022/09/05 05:52:43;;;;;;;1.30;1.23;;;;;;;16.75;98.14;100700.63;5045073;28;20443;-52
2022/09/05 05:55:25;;;;;;;5.53;2.10;;;;;;;16.62;99.36;100697.63;5032174;28;20447;-52
2022/09/05 05:58:34;;;;;;;6.90;2.27;;;;;;;16.63;100.00;100698.47;5031902;28;21022;-52
2022/09/05 06:01:37;;;;;;;2.73;2.53;;;;;;;16.46;100.00;100710.00;5051703;28;20462;-52
2022/09/05 06:04:38;;;;;;;2.67;2.47;;;;;;;16.42;100.00;100705.69;5045078;28;20447;-52
2022/09/05 06:07:40;;;;;;;3.63;3.30;;;;;;;16.53;100.00;100708.78;5044983;28;20521;-52
2022/09/05 06:10:51;;;;;;;2.63;2.43;;;;;;;16.59;100.00;100705.81;5045021;28;20451;-51
2022/09/05 06:13:50;;;;;;;7.70;3.33;;;;;;;17.01;100.00;100700.25;5044926;28;20983;-52
2022/09/05 06:16:48;;;;;;;1.97;1.87;;;;;;;16.87;100.00;100705.41;5036271;28;20827;-51
2022/09/05 06:20:00;;;;;;;3.60;2.80;;;;;;;16.88;100.00;100705.34;5038224;28;20952;-52
2022/09/05 06:23:22;;;;;;;3.70;1.80;;;;;;;17.00;100.00;100703.88;5043750;28;20460;-52
2022/09/05 06:26:24;;;;;;;1.90;1.50;;;;;;;17.50;100.00;100710.38;5031735;28;21023;-52
2022/09/05 06:28:55;;;;;;;1.57;1.47;;;;;;;17.29;100.00;100713.19;5044636;28;20439;-53
2022/09/05 06:32:16;;;;;;;3.37;3.17;;;;;;;17.35;100.00;100715.56;5045540;28;20450;-53
2022/09/05 06:35:08;;;;;;;1.67;1.57;;;;;;;17.67;100.00;100710.38;4948062;29;21016;-53
2022/09/05 06:38:01;;;;;;;2.07;1.93;;;;;;;17.59;99.95;100704.53;5034976;28;20558;-53
2022/09/05 06:40:35;;;;;;;2.33;2.23;;;;;;;17.46;100.00;100709.66;5036442;28;20458;-53
2022/09/05 06:43:13;;;;;;;7.13;3.23;;;;;;;17.64;100.00;100705.16;5053579;28;20468;-53
2022/09/05 06:45:49;;;;;;;2.33;2.23;;;;;;;17.66;100.00;100705.94;5044578;28;20447;-53
2022/09/05 06:48:37;;;;;;;2.57;2.37;;;;;;;17.79;100.00;100709.78;5041318;28;20943;-53
2022/09/05 06:52:04;;;;;;;3.33;3.00;;;;;;;17.83;100.00;100708.69;5041647;28;20454;-53
2022/09/05 06:55:22;;;;;;;2.10;1.90;;;;;;;17.84;100.00;100714.94;5041373;28;20458;-52
2022/09/05 06:58:26;;;;;;;2.47;2.37;;;;;;;18.28;98.71;100712.59;5019368;28;20494;-52
2022/09/05 07:00:55;;;;;;;3.70;2.70;;;;;;;18.02;99.84;100711.28;5061655;28;20456;-52
2022/09/05 07:03:31;;;;;;;2.83;2.63;;;;;;;17.94;100.00;100711.66;5043981;28;20828;-52
2022/09/05 07:06:10;;;;;;;2.63;2.50;;;;;;;18.16;99.76;100706.03;5041492;28;20532;-52
2022/09/05 07:08:52;;;;;;;2.47;2.37;;;;;;;18.69;98.12;100714.88;5041113;28;20444;-51
2022/09/05 07:11:43;;;;;;;2.57;2.40;;;;;;;18.49;98.82;100716.78;5047035;28;20485;-52
2022/09/05 07:14:23;;;;;;;5.87;2.53;;;;;;;18.54;98.30;100713.88;5042159;28;20451;-52
2022/09/05 07:16:54;;;;;;;2.30;2.20;;;;;;;19.08;97.40;100717.16;5047336;28;20470;-52
2022/09/05 07:19:28;;;;;;;3.13;2.93;;;;;;;18.91;96.69;100710.91;5042112;28;20478;-52
2022/09/05 07:22:07;;;;;;;3.17;2.97;;;;;;;18.86;97.21;100706.72;5040737;28;20458;-52
2022/09/05 07:24:55;;;;;;;2.97;2.77;;;;;;;19.00;97.13;100714.03;5041730;28;20448;-52
2022/09/05 07:27:33;;;;;;;3.00;2.83;;;;;;;19.18;96.31;100712.97;5047558;28;20467;-52
2022/09/05 07:30:20;;;;;;;2.67;2.47;;;;;;;19.30;95.55;100714.09;5047778;28;20451;-52
2022/09/05 07:32:52;;;;;;;25.13;3.33;;;;;;;19.02;97.24;100707.59;5045215;28;20453;-52
2022/09/05 07:35:25;;;;;;;3.90;2.57;;;;;;;19.07;96.53;100710.91;5040937;28;20449;-52
2022/09/05 07:38:13;;;;;;;2.27;2.07;;;;;;;19.37;95.54;100708.28;5041071;28;20491;-52
2022/09/05 07:40:45;;;;;;;3.93;3.73;;;;;;;19.21;96.31;100700.22;5034409;28;20459;-52
2022/09/05 07:43:21;;;;;;;2.30;2.20;;;;;;;19.34;96.21;100711.16;5047046;28;20448;-52
2022/09/05 07:45:54;;;;;;;2.73;2.53;;;;;;;19.55;94.81;100711.75;5044674;28;20458;-52
2022/09/05 07:48:27;;;;;;;11.73;3.40;;;;;;;19.95;93.59;100714.75;5040146;28;20443;-52
2022/09/05 07:51:05;;;;;;;6.97;2.47;;;;;;;20.23;92.59;100712.09;5039992;28;20929;-52
2022/09/05 07:54:04;;;;;;;2.80;2.60;;;;;;;20.39;91.74;100710.19;5043405;28;20444;-52
2022/09/05 07:56:53;;;;;;;2.40;2.30;;;;;;;20.22;91.97;100704.97;5033474;28;21004;-52
2022/09/05 07:59:41;;;;;;;2.13;2.03;;;;;;;20.35;91.42;100708.63;5056868;28;20808;-52
2022/09/05 08:02:11;;;;;;;3.40;2.67;;;;;;;20.41;90.95;100710.06;5049118;28;20906;-52
2022/09/05 08:04:40;;;;;;;9.10;2.83;;;;;;;20.68;90.11;100710.19;5047152;28;20451;-52
2022/09/05 08:07:12;;;;;;;3.83;2.67;;;;;;;20.71;89.99;100715.44;5046675;28;20577;-52
2022/09/05 08:10:05;;;;;;;2.90;2.70;;;;;;;20.66;90.38;100715.69;5053458;28;20442;-52
2022/09/05 08:12:46;;;;;;;2.73;2.23;;;;;;;21.07;89.29;100706.75;5039950;28;20451;-52
2022/09/05 08:15:35;;;;;;;3.73;2.17;;;;;;;21.12;89.49;100720.88;5050400;28;20466;-52
2022/09/05 08:18:48;;;;;;;2.13;2.03;;;;;;;21.51;87.58;100711.94;5040861;28;20491;-51
2022/09/05 08:21:42;;;;;;;1.83;1.73;;;;;;;21.88;86.89;100709.44;5033087;28;20868;-51
2022/09/05 08:24:10;;;;;;;2.13;1.93;;;;;;;21.81;86.80;100708.16;5046624;28;20440;-52
2022/09/05 08:26:45;;;;;;;6.07;3.50;;;;;;;21.55;88.06;100707.22;5046521;28;20467;-51
2022/09/05 08:29:19;;;;;;;1.50;1.40;;;;;;;21.81;86.77;100700.03;5033190;28;20471;-52
2022/09/05 08:31:51;;;;;;;7.23;2.53;;;;;;;22.07;86.21;100695.56;5046489;28;20454;-52
2022/09/05 08:34:49;;;;;;;1.50;1.40;;;;;;;22.03;85.89;100696.69;5042341;28;20994;-52
2022/09/05 08:37:19;;;;;;;2.53;2.37;;;;;;;22.37;86.09;100697.94;5032950;28;20503;-52
2022/09/05 08:39:57;;;;;;;2.63;2.53;;;;;;;22.13;85.78;100697.81;5046459;28;20508;-52
2022/09/05 08:42:47;;;;;;;7.80;2.40;;;;;;;22.61;85.44;100703.41;5043640;28;20422;-52
2022/09/05 08:45:42;;;;;;;5.00;1.60;;;;;;;22.69;85.03;100704.63;5032767;28;20426;-53
2022/09/05 08:48:55;;;;;;;12.30;2.97;;;;;;;23.18;82.77;100700.19;5039120;28;20446;-53
2022/09/05 08:51:28;;;;;;;1.93;1.83;;;;;;;23.52;81.11;100698.50;5039287;28;20474;-53
2022/09/05 08:54:23;;;;;;;4.13;1.83;;;;;;;23.34;82.14;100696.22;5040946;28;20463;-53
2022/09/05 08:57:02;;;;;;;2.70;1.70;;;;;;;23.34;81.71;100688.06;5032599;28;20475;-53
2022/09/05 08:59:40;;;;;;;1.90;1.80;;;;;;;23.19;82.14;100689.22;5048965;28;20446;-53
2022/09/05 09:02:47;;;;;;;1.90;1.80;;;;;;;23.29;82.70;100692.97;5037083;28;20459;-53
2022/09/05 09:05:17;;;;;;;3.33;2.30;;;;;;;23.43;81.60;100691.91;5041839;28;20863;-51
2022/09/05 09:08:13;;;;;;;2.00;1.70;;;;;;;23.61;81.96;100687.00;5045741;28;20814;-53
2022/09/05 09:10:56;;;;;;;1.67;1.57;;;;;;;23.77;81.05;100686.66;5048513;28;20447;-53
2022/09/05 09:13:52;;;;;;;13.33;1.80;;;;;;;23.73;81.42;100686.06;5052446;28;20787;-52
2022/09/05 09:16:24;;;;;;;2.20;2.10;;;;;;;23.66;81.51;100679.34;5017793;28;20467;-53
2022/09/05 09:18:51;;;;;;;2.00;1.80;;;;;;;24.10;80.43;100678.59;5038686;28;20493;-52
2022/09/05 09:21:33;;;;;;;1.93;1.80;;;;;;;24.08;80.02;100674.28;5042570;28;20462;-52
2022/09/05 09:24:32;;;;;;;2.00;1.57;;;;;;;24.22;78.23;100674.03;5045580;28;20439;-53
2022/09/05 09:27:08;;;;;;;2.23;2.13;;;;;;;24.42;78.11;100676.09;5045703;28;21023;-53
2022/09/05 09:29:40;;;;;;;2.13;1.70;;;;;;;25.02;77.30;100663.06;5043245;28;20424;-52
2022/09/05 09:32:13;;;;;;;1.93;1.43;;;;;;;25.28;75.95;100669.94;5038881;28;20443;-53
2022/09/05 09:34:40;;;;;;;1.50;1.30;;;;;;;25.39;75.37;100671.75;5039436;28;20501;-53
2022/09/05 09:37:33;;;;;;;1.63;1.00;;;;;;;25.00;75.58;100668.66;5039494;28;20471;-53
2022/09/05 09:40:35;;;;;;;1.70;1.60;;;;;;;25.06;73.73;100654.50;5052177;28;20478;-52
2022/09/05 09:43:26;;;;;;;1.43;1.33;;;;;;;25.50;72.81;100660.81;5038422;28;20937;-53
2022/09/05 09:46:22;;;;;;;0.80;0.73;;;;;;;25.22;72.48;100658.66;5051727;28;20984;-52
2022/09/05 09:49:06;;;;;;;1.20;1.00;;;;;;;25.55;72.32;100658.56;5033072;28;20840;-52
2022/09/05 09:51:53;;;;;;;1.43;1.33;;;;;;;25.97;69.93;100656.75;5052306;28;20425;-53
2022/09/05 09:54:44;;;;;;;1.33;1.00;;;;;;;25.79;69.85;100649.31;5038860;28;20454;-53
2022/09/05 09:57:31;;;;;;;3.67;1.67;;;;;;;25.90;68.34;100643.78;5040787;28;20977;-53
2022/09/05 10:00:19;;;;;;;1.83;1.53;;;;;;;26.07;67.43;100639.59;5047973;28;20449;-53
2022/09/05 10:03:08;;;;;;;0.90;0.90;;;;;;;26.24;67.42;100631.66;5040976;28;20421;-53
2022/09/05 10:06:12;;;;;;;45.00;1.37;;;;;;;26.55;66.06;100634.41;5040023;28;20825;-53
2022/09/05 10:09:08;;;;;;;1.00;0.80;;;;;;;26.43;66.51;100628.19;5042375;28;20450;-53
2022/09/05 10:12:22;;;;;;;1.27;1.17;;;;;;;26.20;65.29;100627.47;5043221;28;20422;-53
2022/09/05 10:15:01;;;;;;;1.67;1.30;;;;;;;26.27;65.40;100622.34;5045729;28;20906;-53
2022/09/05 10:18:18;;;;;;;2.27;1.07;;;;;;;26.05;65.70;100626.13;5042652;28;20487;-53
2022/09/05 10:21:20;;;;;;;0.90;0.90;;;;;;;26.24;65.62;100626.19;5049552;28;20489;-53
2022/09/05 10:24:10;;;;;;;3.50;1.50;;;;;;;26.36;65.02;100609.78;5052427;28;20533;-53
2022/09/05 10:26:36;;;;;;;2.00;1.43;;;;;;;26.18;66.06;100613.13;5041839;28;20977;-53
2022/09/05 10:29:07;;;;;;;0.97;0.90;;;;;;;26.13;66.57;100611.78;5035359;28;20430;-53
2022/09/05 10:32:04;;;;;;;1.00;1.00;;;;;;;26.49;65.23;100618.59;5052072;28;20446;-53
2022/09/05 10:35:00;;;;;;;2.97;0.80;;;;;;;26.40;63.87;100614.81;5041509;28;20459;-53
2022/09/05 10:37:53;;;;;;;2.23;1.53;;;;;;;26.41;63.36;100608.38;5043825;28;20466;-54
2022/09/05 10:40:23;;;;;;;1.00;1.00;;;;;;;26.40;62.99;100613.97;5048272;28;20418;-53
2022/09/05 10:43:01;;;;;;;1.10;0.90;;;;;;;26.50;62.92;100604.81;5048263;28;20454;-53
2022/09/05 10:45:32;;;;;;;1.60;1.50;;;;;;;26.65;61.66;100602.56;5034847;28;20422;-54
2022/09/05 10:48:25;;;;;;;1.20;1.10;;;;;;;26.77;62.72;100596.00;5048903;28;20439;-53
2022/09/05 10:51:02;;;;;;;1.00;0.90;;;;;;;26.76;62.77;100594.28;5047432;28;20913;-53
2022/09/05 10:53:34;;;;;;;2.40;1.07;;;;;;;27.03;61.43;100588.16;5034974;28;21063;-53
2022/09/05 10:56:13;;;;;;;4.50;1.03;;;;;;;26.84;62.11;100586.22;5048418;28;20872;-52
2022/09/05 10:59:00;;;;;;;1.87;1.30;;;;;;;26.88;61.93;100580.50;5044438;28;20496;-52
2022/09/05 11:01:57;;;;;;;1.23;1.13;;;;;;;26.97;61.62;100580.50;5034938;28;20426;-53
2022/09/05 11:04:57;;;;;;;0.70;0.60;;;;;;;27.39;61.61;100572.06;5041620;28;20845;-52
2022/09/05 11:08:00;;;;;;;0.90;0.60;;;;;;;27.50;60.24;100569.19;5049830;28;20474;-53
2022/09/05 11:11:02;;;;;;;1.20;1.10;;;;;;;27.73;60.51;100569.75;5030073;28;20418;-53
2022/09/05 11:13:45;;;;;;;3.07;1.90;;;;;;;27.38;58.87;100560.28;5046657;28;20769;-53
2022/09/05 11:16:23;;;;;;;0.80;0.80;;;;;;;27.62;58.33;100548.03;5036039;28;20467;-54
2022/09/05 11:19:06;;;;;;;1.53;1.43;;;;;;;28.04;58.51;100557.56;5051122;28;20946;-53
2022/09/05 11:22:03;;;;;;;1.03;0.90;;;;;;;27.52;58.53;100556.22;5046354;28;20445;-53
2022/09/05 11:24:59;;;;;;;1.17;1.07;;;;;;;27.57;58.85;100547.63;5034405;28;20476;-54
2022/09/05 11:27:39;;;;;;;0.97;0.90;;;;;;;27.80;58.16;100542.69;5041163;28;20586;-53
2022/09/05 11:30:22;;;;;;;1.17;1.07;;;;;;;27.80;57.72;100546.28;5040657;28;20421;-53
2022/09/05 11:33:22;;;;;;;0.80;0.80;;;;;;;27.95;56.42;100544.78;5041730;28;20947;-53
2022/09/05 11:36:11;;;;;;;0.97;0.90;;;;;;;28.49;55.55;100542.25;5034122;28;20457;-53
2022/09/05 11:39:16;;;;;;;1.30;1.20;;;;;;;28.38;56.77;100540.63;5034018;28;20457;-53
2022/09/05 11:42:08;;;;;;;0.80;0.80;;;;;;;28.55;55.91;100536.19;5034045;28;20455;-54
2022/09/05 11:44:41;;;;;;;1.50;1.37;;;;;;;28.56;55.37;100530.56;5047269;28;20457;-54
2022/09/05 11:47:28;;;;;;;1.13;1.03;;;;;;;28.10;55.21;100534.25;5034006;28;20465;-53
2022/09/05 11:50:28;;;;;;;2.90;0.90;;;;;;;28.20;55.20;100528.72;5053400;28;20834;-52
2022/09/05 11:53:37;;;;;;;0.60;0.60;;;;;;;28.71;52.71;100527.31;5039252;28;20457;-53
2022/09/05 11:56:36;;;;;;;0.70;0.50;;;;;;;28.70;53.49;100528.31;5026902;28;21039;-53
2022/09/05 11:59:35;;;;;;;0.77;0.77;;;;;;;28.95;51.79;100530.31;5054839;28;20490;-53
2022/09/05 12:02:08;;;;;;;1.00;0.80;;;;;;;29.14;51.31;100529.28;5050804;28;20937;-53
2022/09/05 12:05:15;;;;;;;1.27;1.10;;;;;;;29.25;49.39;100525.44;5033768;28;20474;-53
2022/09/05 12:08:37;;;;;;;0.87;0.63;;;;;;;29.15;49.36;100526.41;5044623;28;20441;-53
2022/09/05 12:11:13;;;;;;;11.23;1.93;;;;;;;28.61;50.79;100524.63;5052743;28;20445;-53
2022/09/05 12:13:46;;;;;;;1.57;1.20;;;;;;;28.52;50.90;100512.75;5040050;28;20458;-53
2022/09/05 12:16:57;;;;;;;1.33;1.23;;;;;;;29.24;50.29;100515.53;5053435;28;20976;-53
2022/09/05 12:19:33;;;;;;;1.10;0.80;;;;;;;29.32;48.61;100507.34;4971075;28;20861;-53
2022/09/05 12:22:18;;;;;;;2.00;0.87;;;;;;;29.35;45.55;100507.91;5046944;28;20449;-53
2022/09/05 12:25:10;;;;;;;0.80;0.70;;;;;;;29.49;43.63;100509.25;5045417;28;20426;-53
2022/09/05 12:28:06;;;;;;;0.60;0.50;;;;;;;29.53;41.40;100504.28;5033261;28;20447;-54
2022/09/05 12:31:08;;;;;;;0.60;0.60;;;;;;;29.32;40.38;100501.88;5033282;28;20448;-53
2022/09/05 12:33:55;;;;;;;2.70;0.70;;;;;;;29.67;38.47;100504.56;5039856;28;20946;-53
2022/09/05 12:36:46;;;;;;;0.67;0.53;;;;;;;29.30;37.69;100492.97;5039602;28;20486;-53
2022/09/05 12:39:43;;;;;;;0.70;0.67;;;;;;;29.47;37.52;100484.75;5052863;28;20826;-54
2022/09/05 12:42:55;;;;;;;0.90;0.80;;;;;;;29.35;37.39;100485.16;5033093;28;20451;-54
2022/09/05 12:45:52;;;;;;;0.83;0.83;;;;;;;29.21;39.25;100472.88;5043561;28;20500;-54
2022/09/05 12:48:26;;;;;;;0.80;0.80;;;;;;;29.66;39.92;100474.59;5046124;28;20458;-54
2022/09/05 12:51:07;;;;;;;1.30;1.10;;;;;;;29.38;40.29;100466.50;5048064;28;20508;-54
2022/09/05 12:53:49;;;;;;;0.80;0.70;;;;;;;29.67;40.24;100473.56;5044290;28;20462;-54
2022/09/05 12:56:39;;;;;;;0.67;0.57;;;;;;;29.89;38.87;100467.53;5050346;28;20453;-53
2022/09/05 12:59:28;;;;;;;0.90;0.63;;;;;;;29.61;41.07;100469.59;5042687;28;20843;-53